Hamnavoe — VSTY7 — position and weather

sailwx.info

Track history (hours):
 
Tides and Currents Weather Stations Pressure Air Temp Water Temp Dewpoint Dewpoint Depression Visibility Wind Speed Wind Dir Waves Ship Positions

Hamnavoe

Operator: NorthLink Orkey & Shetland Ferries Ltd

Last reported at 2019-May-20 16:59 UTC. Time now 2019-May-20 17:26 UTC.
Position N 58°38' W 003°31'.

Length 112 m; draft 4.2 m.

Type: Ship. MMSI: 235449000.

Date/timePositionNaut miles runAvg speedWind from/ knotsBaromVisibWave heightAir tempDewpointWater temp
2019-May-20 16:59N 58°38' W 003°31'919.0
2019-May-20 16:30N 58°47' W 003°29'918.1
2019-May-20 16:00N 58°55' W 003°25'5 9.0
2019-May-20 15:30N 58°58' W 003°18'0 0.0
2019-May-20 15:00N 58°58' W 003°18'0 0.0
2019-May-20 14:30N 58°58' W 003°18'0 0.0
2019-May-20 14:00N 58°58' W 003°18'4 8.9
2019-May-20 13:30N 58°55' W 003°25'918.7
2019-May-20 13:00N 58°46' W 003°30'918.4
2019-May-20 12:30N 58°37' W 003°32'1 1.3
2019-May-20 12:00N 58°37' W 003°32'0 0.0
2019-May-20 11:30N 58°37' W 003°32'5 9.6
2019-May-20 11:01N 58°41' W 003°30'1019.0
2019-May-20 10:30N 58°51' W 003°28'816.1
2019-May-20 10:00N 58°57' W 003°18'1 2.0
2019-May-20 09:30N 58°58' W 003°18'1 2.2
2019-May-20 09:00N 58°57' W 003°19'815.9
2019-May-20 08:30N 58°51' W 003°28'918.3
2019-May-20 08:00N 58°42' W 003°30'510.1
2019-May-20 07:30N 58°37' W 003°32'0 0.0
2019-May-20 07:00N 58°37' W 003°32'612.7
2019-May-20 06:30N 58°43' W 003°30'918.7
2019-May-20 06:00N 58°52' W 003°28'714.8
2019-May-20 05:31N 58°57' W 003°18'1 1.0
2019-May-20 04:58N 58°58' W 003°18'0 0.0
2019-May-20 04:28N 58°58' W 003°18'0 0.0
2019-May-20 03:58N 58°58' W 003°18'0 0.0
2019-May-20 03:28N 58°58' W 003°18'0 0.0
2019-May-20 02:58N 58°58' W 003°18'0 0.0
2019-May-20 02:28N 58°58' W 003°18'0 0.0
2019-May-20 01:58N 58°58' W 003°18'0 0.0
2019-May-20 01:28N 58°58' W 003°18'0 0.0
2019-May-20 00:58N 58°58' W 003°18'0 0.0
2019-May-20 00:28N 58°58' W 003°18'0 0.0
2019-May-19 23:58N 58°58' W 003°18'0 0.0
2019-May-19 23:28N 58°58' W 003°18'0 0.0
2019-May-19 22:58N 58°58' W 003°18'0 0.0
2019-May-19 22:28N 58°58' W 003°18'0 0.0
2019-May-19 21:58N 58°58' W 003°18'0 0.0
2019-May-19 21:28N 58°58' W 003°18'0 0.0
2019-May-19 20:58N 58°58' W 003°18'0 0.0
2019-May-19 20:28N 58°58' W 003°18'0 0.0
2019-May-19 19:55N 58°58' W 003°18'0 0.0
2019-May-19 19:26N 58°58' W 003°18'4 8.6
2019-May-19 19:00N 58°56' W 003°24'917.6
2019-May-19 18:30N 58°48' W 003°29'1018.4
2019-May-19 17:58N 58°38' W 003°31'1 2.8
2019-May-19 17:30N 58°37' W 003°32'3 6.1
2019-May-19 17:00N 58°40' W 003°31'918.6
2019-May-19 16:30N 58°49' W 003°29'917.2
2019-May-19 16:01N 58°57' W 003°22'3 5.1
2019-May-19 15:30N 58°58' W 003°18'0 0.8
2019-May-19 15:00N 58°57' W 003°18'510.5
2019-May-19 14:30N 59°02' W 003°23'816.4
2019-May-19 14:00N 59°09' W 003°15'3 4.7
2019-May-19 13:25N 59°09' W 003°21'513.2
2019-May-19 13:00N 59°03' W 003°22'713.4
2019-May-19 12:30N 58°57' W 003°18'1 2.1
2019-May-19 12:00N 58°58' W 003°18'0 0.0
2019-May-19 11:30N 58°58' W 003°18'510.7
2019-May-19 11:00N 58°54' W 003°26'918.0
2019-May-19 10:31N 58°46' W 003°30'918.4
2019-May-19 10:00N 58°37' W 003°32'0 0.3
2019-May-19 09:31N 58°37' W 003°32'611.6
2019-May-19 09:00N 58°42' W 003°30'1019.3
2019-May-19 08:30N 58°52' W 003°28'714.8
2019-May-19 08:00N 58°57' W 003°17'1 1.1
2019-May-19 07:25N 58°58' W 003°18'0 0.0
2019-May-19 06:55N 58°58' W 003°18'0 0.0
2019-May-19 06:25N 58°58' W 003°18'0 0.0
2019-May-19 05:58N 58°58' W 003°18'0 0.0
2019-May-19 05:25N 58°58' W 003°18'0 0.0
2019-May-19 04:55N 58°58' W 003°18'0 0.0
2019-May-19 04:28N 58°58' W 003°18'0 0.0
2019-May-19 03:58N 58°58' W 003°18'0 0.0
2019-May-19 03:28N 58°58' W 003°18'0 0.0
2019-May-19 02:58N 58°58' W 003°18'0 0.0
2019-May-19 02:28N 58°58' W 003°18'0 0.0
2019-May-19 01:58N 58°58' W 003°18'0 0.0
2019-May-19 01:28N 58°58' W 003°18'0 0.0
2019-May-19 00:55N 58°58' W 003°18'0 0.0
2019-May-19 00:25N 58°58' W 003°18'0 0.0
2019-May-18 23:55N 58°58' W 003°18'0 0.0
2019-May-18 23:25N 58°58' W 003°18'0 0.0
2019-May-18 22:59N 58°58' W 003°18'0 0.0
2019-May-18 22:26N 58°58' W 003°18'0 0.0
2019-May-18 21:59N 58°58' W 003°18'0 0.0
2019-May-18 21:26N 58°58' W 003°18'0 0.0
2019-May-18 20:59N 58°58' W 003°18'0 0.0
2019-May-18 20:29N 58°58' W 003°18'0 0.0
2019-May-18 19:59N 58°58' W 003°18'0 0.0
2019-May-18 19:29N 58°58' W 003°18'5 9.7
2019-May-18 19:00N 58°55' W 003°25'917.3
2019-May-18 18:30N 58°47' W 003°29'918.4
2019-May-18 18:01N 58°38' W 003°31'1 2.5
2019-May-18 17:30N 58°37' W 003°32'2 3.1
2019-May-18 17:00N 58°38' W 003°31'918.6
2019-May-18 16:31N 58°47' W 003°29'918.2
2019-May-18 16:00N 58°56' W 003°24'4 7.4
2019-May-18 15:30N 58°58' W 003°18'0 0.0
2019-May-18 15:00N 58°58' W 003°18'0 0.0
2019-May-18 14:30N 58°58' W 003°18'0 0.0
2019-May-18 14:00N 58°58' W 003°18'1 2.3
2019-May-18 13:30N 58°57' W 003°19'815.9
2019-May-18 13:00N 58°51' W 003°29'918.6
2019-May-18 12:30N 58°41' W 003°30'5 9.9
2019-May-18 12:00N 58°37' W 003°32'0 0.0
2019-May-18 11:30N 58°37' W 003°32'714.8
2019-May-18 11:00N 58°44' W 003°32'917.9
2019-May-18 10:30N 58°53' W 003°28'714.3
2019-May-18 10:00N 58°58' W 003°18'0 0.4
2019-May-18 09:30N 58°58' W 003°18'1 2.0
2019-May-18 09:00N 58°57' W 003°17'815.7
2019-May-18 08:30N 58°51' W 003°28'917.9
2019-May-18 08:00N 58°42' W 003°30'611.6
2019-May-18 07:30N 58°37' W 003°32'0 0.2
2019-May-18 06:59N 58°37' W 003°32'715.0
2019-May-18 06:30N 58°44' W 003°30'1019.3
2019-May-18 06:00N 58°53' W 003°28'713.4
2019-May-18 05:31N 58°58' W 003°18'0 0.6
2019-May-18 05:00N 58°58' W 003°18'0 0.0
2019-May-18 04:30N 58°58' W 003°18'0 0.0
2019-May-18 04:00N 58°58' W 003°18'0 0.0
2019-May-18 03:30N 58°58' W 003°18'0 0.0
2019-May-18 03:00N 58°58' W 003°18'0 0.0
2019-May-18 02:30N 58°58' W 003°18'0 0.0
2019-May-18 02:00N 58°58' W 003°18'0 0.0
2019-May-18 01:30N 58°58' W 003°18'0 0.0
2019-May-18 01:00N 58°58' W 003°18'0 0.0
2019-May-18 00:30N 58°58' W 003°18'0 0.0
2019-May-18 00:00N 58°58' W 003°18'0 0.0
2019-May-17 23:27N 58°58' W 003°18'0 0.0
2019-May-17 23:00N 58°58' W 003°18'0 0.0
2019-May-17 22:30N 58°58' W 003°18'0 0.0
2019-May-17 22:00N 58°58' W 003°18'0 0.0
2019-May-17 21:30N 58°58' W 003°18'0 0.0
2019-May-17 21:00N 58°58' W 003°18'0 0.0
2019-May-17 20:30N 58°58' W 003°18'0 0.0
2019-May-17 20:00N 58°58' W 003°18'0 0.0
2019-May-17 19:30N 58°58' W 003°18'611.7
2019-May-17 19:00N 58°54' W 003°26'917.3
2019-May-17 18:30N 58°45' W 003°30'917.9
2019-May-17 18:00N 58°37' W 003°32'0 0.2
2019-May-17 17:30N 58°37' W 003°32'4 7.2
2019-May-17 17:00N 58°40' W 003°31'918.6
2019-May-17 16:30N 58°49' W 003°29'817.0
2019-May-17 16:00N 58°57' W 003°20'2 3.4
2019-May-17 15:30N 58°58' W 003°18'0 0.0
2019-May-17 15:00N 58°58' W 003°18'0 0.0
2019-May-17 14:30N 58°58' W 003°18'0 0.0
2019-May-17 14:00N 58°58' W 003°18'0 0.0
2019-May-17 13:30N 58°58' W 003°18'0 0.0
2019-May-17 13:00N 58°58' W 003°18'0 0.0
2019-May-17 12:30N 58°58' W 003°18'0 0.0
2019-May-17 12:00N 58°58' W 003°18'0 0.0
2019-May-17 11:30N 58°58' W 003°18'0 0.0
2019-May-17 11:00N 58°58' W 003°18'0 0.0
2019-May-17 10:30N 58°58' W 003°18'0 0.0
2019-May-17 10:00N 58°58' W 003°18'0 0.0
2019-May-17 09:30N 58°58' W 003°18'2 4.4
2019-May-17 09:00N 58°57' W 003°21'816.8
2019-May-17 08:30N 58°49' W 003°29'918.5
2019-May-17 08:00N 58°40' W 003°31'3 6.7
2019-May-17 07:30N 58°37' W 003°32'0 0.2
2019-May-17 07:00N 58°37' W 003°32'816.2
2019-May-17 06:30N 58°44' W 003°29'1019.2
2019-May-17 06:00N 58°54' W 003°27'611.9
2019-May-17 05:30N 58°58' W 003°18'0 0.3
2019-May-17 05:00N 58°58' W 003°18'0 0.0
2019-May-17 04:30N 58°58' W 003°18'0 0.0
2019-May-17 04:00N 58°58' W 003°18'0 0.0
2019-May-17 03:30N 58°58' W 003°18'0 0.0
2019-May-17 03:00N 58°58' W 003°18'0 0.0
2019-May-17 02:30N 58°58' W 003°18'0 0.0
2019-May-17 02:00N 58°58' W 003°18'0 0.0
2019-May-17 01:30N 58°58' W 003°18'0 0.0
2019-May-17 01:00N 58°58' W 003°18'0 0.0
2019-May-17 00:30N 58°58' W 003°18'0 0.0
2019-May-17 00:00N 58°58' W 003°18'0 0.0
2019-May-16 23:30N 58°58' W 003°18'0 0.0
2019-May-16 23:00N 58°58' W 003°18'0 0.0
2019-May-16 22:30N 58°58' W 003°18'0 0.0
2019-May-16 22:00N 58°58' W 003°18'0 0.0
2019-May-16 21:30N 58°58' W 003°18'0 0.0
2019-May-16 21:00N 58°58' W 003°18'0 0.0
2019-May-16 20:30N 58°58' W 003°18'0 0.0
2019-May-16 20:00N 58°58' W 003°18'0 0.0
2019-May-16 19:30N 58°58' W 003°18'611.5
2019-May-16 19:00N 58°54' W 003°26'917.7
2019-May-16 18:30N 58°45' W 003°29'918.1
2019-May-16 18:00N 58°37' W 003°32'0 0.2
2019-May-16 17:30N 58°37' W 003°32'3 5.3
2019-May-16 17:00N 58°39' W 003°31'918.2
2019-May-16 16:30N 58°48' W 003°29'917.7
2019-May-16 16:00N 58°56' W 003°23'3 5.8
2019-May-16 15:30N 58°58' W 003°18'0 0.0
2019-May-16 15:00N 58°58' W 003°18'0 0.0
2019-May-16 14:27N 58°58' W 003°18'0 0.0
2019-May-16 13:57N 58°58' W 003°18'0 0.0
2019-May-16 13:30N 58°58' W 003°18'0 0.0
2019-May-16 12:57N 58°58' W 003°18'0 0.0
2019-May-16 12:21N 58°58' W 003°18'0 0.0
2019-May-16 11:57N 58°58' W 003°18'0 0.0
2019-May-16 11:30N 58°58' W 003°18'0 0.0
2019-May-16 11:00N 58°58' W 003°18'0 0.0
2019-May-16 10:30N 58°58' W 003°18'0 0.0
2019-May-16 10:00N 58°58' W 003°18'0 0.0
2019-May-16 09:30N 58°58' W 003°18'1 2.1
2019-May-16 09:00N 58°57' W 003°17'715.0
2019-May-16 08:30N 58°52' W 003°28'918.8
2019-May-16 08:00N 58°42' W 003°30'611.7
2019-May-16 07:31N 58°37' W 003°32'0 0.1
2019-May-16 07:00N 58°37' W 003°32'714.6
2019-May-16 06:30N 58°44' W 003°30'918.8
2019-May-16 06:00N 58°53' W 003°28'713.4
2019-May-16 05:30N 58°58' W 003°18'0 0.4
2019-May-16 04:58N 58°58' W 003°18'0 0.0
2019-May-16 04:28N 58°58' W 003°18'0 0.0
2019-May-16 03:58N 58°58' W 003°18'0 0.0
2019-May-16 03:28N 58°58' W 003°18'0 0.0
2019-May-16 02:58N 58°58' W 003°18'0 0.0
2019-May-16 02:28N 58°58' W 003°18'0 0.0
2019-May-16 01:58N 58°58' W 003°18'0 0.0
2019-May-16 01:28N 58°58' W 003°18'0 0.0
2019-May-16 00:58N 58°58' W 003°18'0 0.0
2019-May-16 00:28N 58°58' W 003°18'0 0.0
2019-May-15 23:58N 58°58' W 003°18'0 0.0
2019-May-15 23:28N 58°58' W 003°18'0 0.0
2019-May-15 22:58N 58°58' W 003°18'0 0.0
2019-May-15 22:28N 58°58' W 003°18'0 0.0
2019-May-15 21:55N 58°58' W 003°18'0 0.0
2019-May-15 21:28N 58°58' W 003°18'0 0.0
2019-May-15 20:58N 58°58' W 003°18'0 0.0
2019-May-15 20:25N 58°58' W 003°18'0 0.0
2019-May-15 19:58N 58°58' W 003°18'0 0.0
2019-May-15 19:30N 58°58' W 003°18'5 9.3
2019-May-15 19:01N 58°56' W 003°26'918.0
2019-May-15 18:30N 58°47' W 003°29'918.8
2019-May-15 18:00N 58°37' W 003°32'1 1.6
2019-May-15 17:30N 58°37' W 003°32'4 8.1
2019-May-15 17:00N 58°41' W 003°31'918.7
2019-May-15 16:30N 58°50' W 003°28'816.4
2019-May-15 16:00N 58°57' W 003°20'1 2.7
2019-May-15 15:29N 58°58' W 003°18'0 0.0
2019-May-15 14:56N 58°58' W 003°18'0 0.0
2019-May-15 14:26N 58°58' W 003°18'0 0.0
2019-May-15 13:56N 58°58' W 003°18'0 0.0
2019-May-15 13:26N 58°58' W 003°18'0 0.0
2019-May-15 12:56N 58°58' W 003°18'0 0.0
2019-May-15 12:26N 58°58' W 003°18'0 0.0
2019-May-15 11:41N 58°58' W 003°18'0 0.0
2019-May-15 11:20N 58°58' W 003°18'0 0.0
2019-May-15 11:00N 58°58' W 003°18'0 0.0
2019-May-15 10:29N 58°58' W 003°18'0 0.0
2019-May-15 09:59N 58°58' W 003°18'0 0.0
2019-May-15 09:29N 58°58' W 003°18'1 2.1
2019-May-15 09:00N 58°57' W 003°18'715.0
2019-May-15 08:30N 58°51' W 003°28'918.6
2019-May-15 08:00N 58°42' W 003°30'611.2
2019-May-15 07:30N 58°37' W 003°32'0 0.0
2019-May-15 07:00N 58°37' W 003°32'713.2
2019-May-15 06:30N 58°43' W 003°29'1019.0
2019-May-15 06:00N 58°53' W 003°27'714.0
2019-May-15 05:30N 58°57' W 003°18'0 0.7
2019-May-15 04:59N 58°58' W 003°18'0 0.0
2019-May-15 04:29N 58°58' W 003°18'0 0.0
2019-May-15 03:59N 58°58' W 003°18'0 0.0
2019-May-15 03:29N 58°58' W 003°18'0 0.0
2019-May-15 02:56N 58°58' W 003°18'0 0.0
2019-May-15 02:29N 58°58' W 003°18'0 0.0
2019-May-15 01:56N 58°58' W 003°18'0 0.0
2019-May-15 01:29N 58°58' W 003°18'0 0.0
2019-May-15 00:59N 58°58' W 003°18'0 0.0
2019-May-15 00:29N 58°58' W 003°18'0 0.0
2019-May-14 23:59N 58°58' W 003°18'0 0.0
2019-May-14 23:29N 58°58' W 003°18'0 0.0
2019-May-14 22:59N 58°58' W 003°18'0 0.0
2019-May-14 22:29N 58°58' W 003°18'0 0.0
2019-May-14 21:59N 58°58' W 003°18'0 0.0
2019-May-14 21:29N 58°58' W 003°18'0 0.0
2019-May-14 20:59N 58°58' W 003°18'0 0.0
2019-May-14 20:26N 58°58' W 003°18'0 0.0
2019-May-14 19:56N 58°58' W 003°18'0 0.0
2019-May-14 19:29N 58°58' W 003°18'3 7.1
2019-May-14 19:01N 58°56' W 003°24'917.4
2019-May-14 18:30N 58°48' W 003°29'918.3
2019-May-14 18:00N 58°39' W 003°31'2 4.6
2019-May-14 17:31N 58°37' W 003°32'1 2.8
2019-May-14 16:59N 58°38' W 003°31'918.6
2019-May-14 16:30N 58°47' W 003°29'919.0
2019-May-14 16:00N 58°56' W 003°24'4 7.8
2019-May-14 15:30N 58°58' W 003°18'0 0.0
2019-May-14 14:59N 58°58' W 003°18'0 0.0
2019-May-14 14:26N 58°58' W 003°18'0 0.0
2019-May-14 13:56N 58°58' W 003°18'0 0.0
2019-May-14 13:26N 58°58' W 003°18'0 0.0
2019-May-14 12:56N 58°58' W 003°18'0 0.0
2019-May-14 12:20N 58°58' W 003°18'0 0.0
2019-May-14 11:56N 58°58' W 003°18'0 0.0
2019-May-14 11:20N 58°58' W 003°18'0 0.0
2019-May-14 10:56N 58°58' W 003°18'0 0.0
2019-May-14 10:29N 58°58' W 003°18'0 0.0
2019-May-14 10:00N 58°58' W 003°18'0 0.0
2019-May-14 09:30N 58°58' W 003°18'1 2.3
2019-May-14 09:00N 58°57' W 003°19'815.7
2019-May-14 08:30N 58°51' W 003°28'918.5
2019-May-14 08:00N 58°41' W 003°30'5 9.8
2019-May-14 07:30N 58°37' W 003°32'0 0.0
2019-May-14 07:00N 58°37' W 003°32'714.8
2019-May-14 06:30N 58°44' W 003°29'918.9
2019-May-14 06:00N 58°53' W 003°27'713.0
2019-May-14 05:30N 58°58' W 003°18'0 0.3
2019-May-14 04:59N 58°58' W 003°18'0 0.0
2019-May-14 04:29N 58°58' W 003°18'0 0.0
2019-May-14 03:50N 58°58' W 003°18'0 0.0
2019-May-14 03:29N 58°58' W 003°18'0 0.0
2019-May-14 02:59N 58°58' W 003°18'0 0.0
2019-May-14 02:29N 58°58' W 003°18'0 0.0
2019-May-14 01:59N 58°58' W 003°18'0 0.0
2019-May-14 01:29N 58°58' W 003°18'0 0.0
2019-May-14 00:59N 58°58' W 003°18'0 0.0
2019-May-13 23:14N 58°58' W 003°18'0 0.0
2019-May-13 22:59N 58°58' W 003°18'0 0.0
2019-May-13 22:26N 58°58' W 003°18'0 0.0
2019-May-13 21:59N 58°58' W 003°18'0 0.0
2019-May-13 21:29N 58°58' W 003°18'0 0.0
2019-May-13 20:59N 58°58' W 003°18'0 0.0
2019-May-13 20:29N 58°58' W 003°18'0 0.0
2019-May-13 19:59N 58°58' W 003°18'0 0.0
2019-May-13 19:30N 58°58' W 003°18'510.3
2019-May-13 19:00N 58°55' W 003°26'918.1
2019-May-13 18:30N 58°46' W 003°29'917.8
2019-May-13 17:58N 58°37' W 003°32'0 0.3
2019-May-13 17:30N 58°37' W 003°32'3 5.3
2019-May-13 17:00N 58°39' W 003°31'918.3
2019-May-13 16:30N 58°48' W 003°29'917.6
2019-May-13 16:00N 58°56' W 003°23'3 6.5
2019-May-13 15:30N 58°58' W 003°18'0 0.0
2019-May-13 14:58N 58°58' W 003°18'0 0.0
2019-May-13 14:28N 58°58' W 003°18'0 0.0
2019-May-13 13:58N 58°58' W 003°18'0 0.0
2019-May-13 13:28N 58°58' W 003°18'0 0.0
2019-May-13 12:58N 58°58' W 003°18'0 0.0
2019-May-13 12:28N 58°58' W 003°18'0 0.0
2019-May-13 11:58N 58°58' W 003°18'0 0.0
2019-May-13 11:28N 58°58' W 003°18'0 0.0
2019-May-13 10:58N 58°58' W 003°18'0 0.0
2019-May-13 10:28N 58°58' W 003°18'0 0.0
2019-May-13 09:58N 58°58' W 003°18'0 0.0
2019-May-13 09:28N 58°58' W 003°18'1 2.4
2019-May-13 09:00N 58°57' W 003°19'816.1
2019-May-13 08:31N 58°51' W 003°29'918.4
2019-May-13 08:00N 58°42' W 003°31'5 9.8
2019-May-13 07:30N 58°37' W 003°32'0 0.0
2019-May-13 07:00N 58°37' W 003°32'713.6
2019-May-13 06:30N 58°43' W 003°30'918.7
2019-May-13 06:00N 58°53' W 003°28'714.4
2019-May-13 05:30N 58°58' W 003°18'0 0.4
2019-May-13 04:57N 58°58' W 003°18'0 0.0
2019-May-13 04:21N 58°58' W 003°18'0 0.0
2019-May-13 03:57N 58°58' W 003°18'0 0.0
2019-May-13 03:27N 58°58' W 003°18'0 0.0
2019-May-13 02:57N 58°58' W 003°18'0 0.0
2019-May-13 02:27N 58°58' W 003°18'0 0.0
2019-May-13 02:00N 58°58' W 003°18'0 0.0
2019-May-13 01:27N 58°58' W 003°18'0 0.0
2019-May-13 00:57N 58°58' W 003°18'0 0.0
2019-May-13 00:27N 58°58' W 003°18'0 0.0
2019-May-13 00:00N 58°58' W 003°18'0 0.0
2019-May-12 23:27N 58°58' W 003°18'0 0.0
2019-May-12 22:57N 58°58' W 003°18'0 0.0
2019-May-12 22:27N 58°58' W 003°18'0 0.0
2019-May-12 21:57N 58°58' W 003°18'0 0.0
2019-May-12 21:27N 58°58' W 003°18'0 0.0
2019-May-12 20:57N 58°58' W 003°18'0 0.0
2019-May-12 20:27N 58°58' W 003°18'0 0.0
2019-May-12 19:57N 58°58' W 003°18'0 0.0
2019-May-12 19:30N 58°58' W 003°18'3 6.2
2019-May-12 19:00N 58°56' W 003°23'917.7
2019-May-12 18:30N 58°48' W 003°28'918.3
2019-May-12 18:00N 58°39' W 003°31'2 4.8
2019-May-12 17:30N 58°37' W 003°32'2 3.2
2019-May-12 16:58N 58°38' W 003°31'918.6
2019-May-12 16:30N 58°47' W 003°29'919.1
2019-May-12 16:00N 58°56' W 003°25'4 8.0
2019-May-12 15:30N 58°58' W 003°18'0 0.0
2019-May-12 15:00N 58°58' W 003°18'0 0.0
2019-May-12 14:30N 58°58' W 003°18'0 0.0
2019-May-12 14:00N 58°58' W 003°18'0 0.0
2019-May-12 13:30N 58°58' W 003°18'0 0.0
2019-May-12 13:00N 58°58' W 003°18'0 0.0
2019-May-12 12:30N 58°58' W 003°18'4 7.3
2019-May-12 12:00N 58°56' W 003°24'918.1
2019-May-12 11:30N 58°48' W 003°29'918.3
2019-May-12 11:00N 58°39' W 003°31'2 4.0
2019-May-12 10:30N 58°37' W 003°32'0 0.0
2019-May-12 10:00N 58°37' W 003°32'0 0.0
2019-May-12 09:30N 58°37' W 003°32'510.5
2019-May-12 09:00N 58°42' W 003°31'918.3
2019-May-12 08:30N 58°51' W 003°28'816.2
2019-May-12 08:00N 58°57' W 003°18'1 2.0
2019-May-12 07:29N 58°58' W 003°18'0 0.0
2019-May-12 06:56N 58°58' W 003°18'0 0.0
2019-May-12 06:29N 58°58' W 003°18'0 0.0
2019-May-12 06:01N 58°58' W 003°18'0 0.0
2019-May-12 05:31N 58°58' W 003°18'0 0.0
2019-May-12 05:01N 58°58' W 003°18'0 0.0
2019-May-12 04:31N 58°58' W 003°18'0 0.0
2019-May-12 04:01N 58°58' W 003°18'0 0.0
2019-May-12 03:31N 58°58' W 003°18'0 0.0
2019-May-12 03:01N 58°58' W 003°18'0 0.0
2019-May-12 02:25N 58°58' W 003°18'0 0.0
2019-May-12 02:01N 58°58' W 003°18'0 0.0
2019-May-12 01:31N 58°58' W 003°18'0 0.0
2019-May-12 01:01N 58°58' W 003°18'0 0.0
2019-May-12 00:31N 58°58' W 003°18'0 0.0
2019-May-12 00:00N 58°58' W 003°18'0 0.0
2019-May-11 23:28N 58°58' W 003°18'0 0.0
2019-May-11 22:58N 58°58' W 003°18'0 0.0
2019-May-11 22:28N 58°58' W 003°18'0 0.0
2019-May-11 21:58N 58°58' W 003°18'0 0.0
2019-May-11 21:28N 58°58' W 003°18'0 0.0
2019-May-11 20:58N 58°58' W 003°18'0 0.0
2019-May-11 20:28N 58°58' W 003°18'0 0.0
2019-May-11 19:58N 58°58' W 003°18'0 0.0
2019-May-11 19:29N 58°58' W 003°18'3 6.5
2019-May-11 19:00N 58°56' W 003°23'917.9
2019-May-11 18:30N 58°48' W 003°28'918.0
2019-May-11 18:00N 58°39' W 003°31'2 4.7
2019-May-11 17:30N 58°37' W 003°32'2 3.3
2019-May-11 16:57N 58°38' W 003°31'819.0
2019-May-11 16:30N 58°47' W 003°29'918.8
2019-May-11 16:00N 58°56' W 003°25'4 8.3
2019-May-11 15:30N 58°58' W 003°18'0 0.0
2019-May-11 14:57N 58°58' W 003°18'0 0.0
2019-May-11 14:27N 58°58' W 003°18'0 0.0
2019-May-11 13:57N 58°58' W 003°18'0 0.0
2019-May-11 13:27N 58°58' W 003°18'0 0.0
2019-May-11 13:00N 58°58' W 003°18'0 0.0
2019-May-11 12:30N 58°58' W 003°18'4 8.7
2019-May-11 12:00N 58°56' W 003°25'917.3
2019-May-11 11:30N 58°47' W 003°29'918.1
2019-May-11 11:00N 58°38' W 003°31'2 2.9
2019-May-11 10:24N 58°37' W 003°32'0 0.0
2019-May-11 10:00N 58°37' W 003°32'0 0.0
2019-May-11 09:30N 58°37' W 003°32'612.5
2019-May-11 09:01N 58°43' W 003°30'918.4
2019-May-11 08:31N 58°52' W 003°28'815.0
2019-May-11 08:00N 58°57' W 003°18'1 1.1
2019-May-11 07:30N 58°58' W 003°18'0 0.0
2019-May-11 07:00N 58°58' W 003°18'0 0.0
2019-May-11 06:30N 58°58' W 003°18'0 0.0
2019-May-11 06:00N 58°58' W 003°18'0 0.0
2019-May-11 05:30N 58°58' W 003°18'0 0.0
2019-May-11 05:00N 58°58' W 003°18'0 0.0
2019-May-11 04:30N 58°58' W 003°18'0 0.0
2019-May-11 04:00N 58°58' W 003°18'0 0.0
2019-May-11 03:30N 58°58' W 003°18'0 0.0
2019-May-11 03:00N 58°58' W 003°18'0 0.0
2019-May-11 02:30N 58°58' W 003°18'0 0.0
2019-May-11 01:57N 58°58' W 003°18'0 0.0
2019-May-11 01:30N 58°58' W 003°18'0 0.0
2019-May-11 01:00N 58°58' W 003°18'0 0.0
2019-May-11 00:30N 58°58' W 003°18'0 0.0
2019-May-10 23:48N 58°58' W 003°18'0 0.0
2019-May-10 23:30N 58°58' W 003°18'0 0.0
2019-May-10 23:00N 58°58' W 003°18'0 0.0
2019-May-10 22:30N 58°58' W 003°18'0 0.0
2019-May-10 22:00N 58°58' W 003°18'0 0.0
2019-May-10 21:30N 58°58' W 003°18'0 0.0
2019-May-10 21:00N 58°58' W 003°18'0 0.0
2019-May-10 20:30N 58°58' W 003°18'0 0.0
2019-May-10 20:00N 58°58' W 003°18'0 0.0
2019-May-10 19:30N 58°58' W 003°18'5 9.3
2019-May-10 19:00N 58°55' W 003°25'918.5
2019-May-10 18:30N 58°46' W 003°29'918.1
2019-May-10 18:00N 58°37' W 003°32'1 1.7
2019-May-10 17:30N 58°37' W 003°32'1 1.2
2019-May-10 17:00N 58°37' W 003°32'  
Track history (hours):
 
Tides and Currents Weather Stations Pressure Air Temp Water Temp Dewpoint Dewpoint Depression Visibility Wind Speed Wind Dir Waves Ship Positions

Hamnavoe

Operator: NorthLink Orkey & Shetland Ferries Ltd

Last reported at 2019-May-20 16:59 UTC. Time now 2019-May-20 17:26 UTC.
Position N 58°38' W 003°31'.

Length 112 m; draft 4.2 m.

Type: Ship. MMSI: 235449000.

Date/timePositionNaut miles runAvg speedWind from/ knotsBaromVisibWave heightAir tempDewpointWater temp
2019-May-20 16:59N 58°38' W 003°31'919.0
2019-May-20 16:30N 58°47' W 003°29'918.1
2019-May-20 16:00N 58°55' W 003°25'5 9.0
2019-May-20 15:30N 58°58' W 003°18'0 0.0
2019-May-20 15:00N 58°58' W 003°18'0 0.0
2019-May-20 14:30N 58°58' W 003°18'0 0.0
2019-May-20 14:00N 58°58' W 003°18'4 8.9
2019-May-20 13:30N 58°55' W 003°25'918.7
2019-May-20 13:00N 58°46' W 003°30'918.4
2019-May-20 12:30N 58°37' W 003°32'1 1.3
2019-May-20 12:00N 58°37' W 003°32'0 0.0
2019-May-20 11:30N 58°37' W 003°32'5 9.6
2019-May-20 11:01N 58°41' W 003°30'1019.0
2019-May-20 10:30N 58°51' W 003°28'816.1
2019-May-20 10:00N 58°57' W 003°18'1 2.0
2019-May-20 09:30N 58°58' W 003°18'1 2.2
2019-May-20 09:00N 58°57' W 003°19'815.9
2019-May-20 08:30N 58°51' W 003°28'918.3
2019-May-20 08:00N 58°42' W 003°30'510.1
2019-May-20 07:30N 58°37' W 003°32'0 0.0
2019-May-20 07:00N 58°37' W 003°32'612.7
2019-May-20 06:30N 58°43' W 003°30'918.7
2019-May-20 06:00N 58°52' W 003°28'714.8
2019-May-20 05:31N 58°57' W 003°18'1 1.0
2019-May-20 04:58N 58°58' W 003°18'0 0.0
2019-May-20 04:28N 58°58' W 003°18'0 0.0
2019-May-20 03:58N 58°58' W 003°18'0 0.0
2019-May-20 03:28N 58°58' W 003°18'0 0.0
2019-May-20 02:58N 58°58' W 003°18'0 0.0
2019-May-20 02:28N 58°58' W 003°18'0 0.0
2019-May-20 01:58N 58°58' W 003°18'0 0.0
2019-May-20 01:28N 58°58' W 003°18'0 0.0
2019-May-20 00:58N 58°58' W 003°18'0 0.0
2019-May-20 00:28N 58°58' W 003°18'0 0.0
2019-May-19 23:58N 58°58' W 003°18'0 0.0
2019-May-19 23:28N 58°58' W 003°18'0 0.0
2019-May-19 22:58N 58°58' W 003°18'0 0.0
2019-May-19 22:28N 58°58' W 003°18'0 0.0
2019-May-19 21:58N 58°58' W 003°18'0 0.0
2019-May-19 21:28N 58°58' W 003°18'0 0.0
2019-May-19 20:58N 58°58' W 003°18'0 0.0
2019-May-19 20:28N 58°58' W 003°18'0 0.0
2019-May-19 19:55N 58°58' W 003°18'0 0.0
2019-May-19 19:26N 58°58' W 003°18'4 8.6
2019-May-19 19:00N 58°56' W 003°24'917.6
2019-May-19 18:30N 58°48' W 003°29'1018.4
2019-May-19 17:58N 58°38' W 003°31'1 2.8
2019-May-19 17:30N 58°37' W 003°32'3 6.1
2019-May-19 17:00N 58°40' W 003°31'918.6
2019-May-19 16:30N 58°49' W 003°29'917.2
2019-May-19 16:01N 58°57' W 003°22'3 5.1
2019-May-19 15:30N 58°58' W 003°18'0 0.8
2019-May-19 15:00N 58°57' W 003°18'510.5
2019-May-19 14:30N 59°02' W 003°23'816.4
2019-May-19 14:00N 59°09' W 003°15'3 4.7
2019-May-19 13:25N 59°09' W 003°21'513.2
2019-May-19 13:00N 59°03' W 003°22'713.4
2019-May-19 12:30N 58°57' W 003°18'1 2.1
2019-May-19 12:00N 58°58' W 003°18'0 0.0
2019-May-19 11:30N 58°58' W 003°18'510.7
2019-May-19 11:00N 58°54' W 003°26'918.0
2019-May-19 10:31N 58°46' W 003°30'918.4
2019-May-19 10:00N 58°37' W 003°32'0 0.3
2019-May-19 09:31N 58°37' W 003°32'611.6
2019-May-19 09:00N 58°42' W 003°30'1019.3
2019-May-19 08:30N 58°52' W 003°28'714.8
2019-May-19 08:00N 58°57' W 003°17'1 1.1
2019-May-19 07:25N 58°58' W 003°18'0 0.0
2019-May-19 06:55N 58°58' W 003°18'0 0.0
2019-May-19 06:25N 58°58' W 003°18'0 0.0
2019-May-19 05:58N 58°58' W 003°18'0 0.0
2019-May-19 05:25N 58°58' W 003°18'0 0.0
2019-May-19 04:55N 58°58' W 003°18'0 0.0
2019-May-19 04:28N 58°58' W 003°18'0 0.0
2019-May-19 03:58N 58°58' W 003°18'0 0.0
2019-May-19 03:28N 58°58' W 003°18'0 0.0
2019-May-19 02:58N 58°58' W 003°18'0 0.0
2019-May-19 02:28N 58°58' W 003°18'0 0.0
2019-May-19 01:58N 58°58' W 003°18'0 0.0
2019-May-19 01:28N 58°58' W 003°18'0 0.0
2019-May-19 00:55N 58°58' W 003°18'0 0.0
2019-May-19 00:25N 58°58' W 003°18'0 0.0
2019-May-18 23:55N 58°58' W 003°18'0 0.0
2019-May-18 23:25N 58°58' W 003°18'0 0.0
2019-May-18 22:59N 58°58' W 003°18'0 0.0
2019-May-18 22:26N 58°58' W 003°18'0 0.0
2019-May-18 21:59N 58°58' W 003°18'0 0.0
2019-May-18 21:26N 58°58' W 003°18'0 0.0
2019-May-18 20:59N 58°58' W 003°18'0 0.0
2019-May-18 20:29N 58°58' W 003°18'0 0.0
2019-May-18 19:59N 58°58' W 003°18'0 0.0
2019-May-18 19:29N 58°58' W 003°18'5 9.7
2019-May-18 19:00N 58°55' W 003°25'917.3
2019-May-18 18:30N 58°47' W 003°29'918.4
2019-May-18 18:01N 58°38' W 003°31'1 2.5
2019-May-18 17:30N 58°37' W 003°32'2 3.1
2019-May-18 17:00N 58°38' W 003°31'918.6
2019-May-18 16:31N 58°47' W 003°29'918.2
2019-May-18 16:00N 58°56' W 003°24'4 7.4
2019-May-18 15:30N 58°58' W 003°18'0 0.0
2019-May-18 15:00N 58°58' W 003°18'0 0.0
2019-May-18 14:30N 58°58' W 003°18'0 0.0
2019-May-18 14:00N 58°58' W 003°18'1 2.3
2019-May-18 13:30N 58°57' W 003°19'815.9
2019-May-18 13:00N 58°51' W 003°29'918.6
2019-May-18 12:30N 58°41' W 003°30'5 9.9
2019-May-18 12:00N 58°37' W 003°32'0 0.0
2019-May-18 11:30N 58°37' W 003°32'714.8
2019-May-18 11:00N 58°44' W 003°32'917.9
2019-May-18 10:30N 58°53' W 003°28'714.3
2019-May-18 10:00N 58°58' W 003°18'0 0.4
2019-May-18 09:30N 58°58' W 003°18'1 2.0
2019-May-18 09:00N 58°57' W 003°17'815.7
2019-May-18 08:30N 58°51' W 003°28'917.9
2019-May-18 08:00N 58°42' W 003°30'611.6
2019-May-18 07:30N 58°37' W 003°32'0 0.2
2019-May-18 06:59N 58°37' W 003°32'715.0
2019-May-18 06:30N 58°44' W 003°30'1019.3
2019-May-18 06:00N 58°53' W 003°28'713.4
2019-May-18 05:31N 58°58' W 003°18'0 0.6
2019-May-18 05:00N 58°58' W 003°18'0 0.0
2019-May-18 04:30N 58°58' W 003°18'0 0.0
2019-May-18 04:00N 58°58' W 003°18'0 0.0
2019-May-18 03:30N 58°58' W 003°18'0 0.0
2019-May-18 03:00N 58°58' W 003°18'0 0.0
2019-May-18 02:30N 58°58' W 003°18'0 0.0
2019-May-18 02:00N 58°58' W 003°18'0 0.0
2019-May-18 01:30N 58°58' W 003°18'0 0.0
2019-May-18 01:00N 58°58' W 003°18'0 0.0
2019-May-18 00:30N 58°58' W 003°18'0 0.0
2019-May-18 00:00N 58°58' W 003°18'0 0.0
2019-May-17 23:27N 58°58' W 003°18'0 0.0
2019-May-17 23:00N 58°58' W 003°18'0 0.0
2019-May-17 22:30N 58°58' W 003°18'0 0.0
2019-May-17 22:00N 58°58' W 003°18'0 0.0
2019-May-17 21:30N 58°58' W 003°18'0 0.0
2019-May-17 21:00N 58°58' W 003°18'0 0.0
2019-May-17 20:30N 58°58' W 003°18'0 0.0
2019-May-17 20:00N 58°58' W 003°18'0 0.0
2019-May-17 19:30N 58°58' W 003°18'611.7
2019-May-17 19:00N 58°54' W 003°26'917.3
2019-May-17 18:30N 58°45' W 003°30'917.9
2019-May-17 18:00N 58°37' W 003°32'0 0.2
2019-May-17 17:30N 58°37' W 003°32'4 7.2
2019-May-17 17:00N 58°40' W 003°31'918.6
2019-May-17 16:30N 58°49' W 003°29'817.0
2019-May-17 16:00N 58°57' W 003°20'2 3.4
2019-May-17 15:30N 58°58' W 003°18'0 0.0
2019-May-17 15:00N 58°58' W 003°18'0 0.0
2019-May-17 14:30N 58°58' W 003°18'0 0.0
2019-May-17 14:00N 58°58' W 003°18'0 0.0
2019-May-17 13:30N 58°58' W 003°18'0 0.0
2019-May-17 13:00N 58°58' W 003°18'0 0.0
2019-May-17 12:30N 58°58' W 003°18'0 0.0
2019-May-17 12:00N 58°58' W 003°18'0 0.0
2019-May-17 11:30N 58°58' W 003°18'0 0.0
2019-May-17 11:00N 58°58' W 003°18'0 0.0
2019-May-17 10:30N 58°58' W 003°18'0 0.0
2019-May-17 10:00N 58°58' W 003°18'0 0.0
2019-May-17 09:30N 58°58' W 003°18'2 4.4
2019-May-17 09:00N 58°57' W 003°21'816.8
2019-May-17 08:30N 58°49' W 003°29'918.5
2019-May-17 08:00N 58°40' W 003°31'3 6.7
2019-May-17 07:30N 58°37' W 003°32'0 0.2
2019-May-17 07:00N 58°37' W 003°32'816.2
2019-May-17 06:30N 58°44' W 003°29'1019.2
2019-May-17 06:00N 58°54' W 003°27'611.9
2019-May-17 05:30N 58°58' W 003°18'0 0.3
2019-May-17 05:00N 58°58' W 003°18'0 0.0
2019-May-17 04:30N 58°58' W 003°18'0 0.0
2019-May-17 04:00N 58°58' W 003°18'0 0.0
2019-May-17 03:30N 58°58' W 003°18'0 0.0
2019-May-17 03:00N 58°58' W 003°18'0 0.0
2019-May-17 02:30N 58°58' W 003°18'0 0.0
2019-May-17 02:00N 58°58' W 003°18'0 0.0
2019-May-17 01:30N 58°58' W 003°18'0 0.0
2019-May-17 01:00N 58°58' W 003°18'0 0.0
2019-May-17 00:30N 58°58' W 003°18'0 0.0
2019-May-17 00:00N 58°58' W 003°18'0 0.0
2019-May-16 23:30N 58°58' W 003°18'0 0.0
2019-May-16 23:00N 58°58' W 003°18'0 0.0
2019-May-16 22:30N 58°58' W 003°18'0 0.0
2019-May-16 22:00N 58°58' W 003°18'0 0.0
2019-May-16 21:30N 58°58' W 003°18'0 0.0
2019-May-16 21:00N 58°58' W 003°18'0 0.0
2019-May-16 20:30N 58°58' W 003°18'0 0.0
2019-May-16 20:00N 58°58' W 003°18'0 0.0
2019-May-16 19:30N 58°58' W 003°18'611.5
2019-May-16 19:00N 58°54' W 003°26'917.7
2019-May-16 18:30N 58°45' W 003°29'918.1
2019-May-16 18:00N 58°37' W 003°32'0 0.2
2019-May-16 17:30N 58°37' W 003°32'3 5.3
2019-May-16 17:00N 58°39' W 003°31'918.2
2019-May-16 16:30N 58°48' W 003°29'917.7
2019-May-16 16:00N 58°56' W 003°23'3 5.8
2019-May-16 15:30N 58°58' W 003°18'0 0.0
2019-May-16 15:00N 58°58' W 003°18'0 0.0
2019-May-16 14:27N 58°58' W 003°18'0 0.0
2019-May-16 13:57N 58°58' W 003°18'0 0.0
2019-May-16 13:30N 58°58' W 003°18'0 0.0
2019-May-16 12:57N 58°58' W 003°18'0 0.0
2019-May-16 12:21N 58°58' W 003°18'0 0.0
2019-May-16 11:57N 58°58' W 003°18'0 0.0
2019-May-16 11:30N 58°58' W 003°18'0 0.0
2019-May-16 11:00N 58°58' W 003°18'0 0.0
2019-May-16 10:30N 58°58' W 003°18'0 0.0
2019-May-16 10:00N 58°58' W 003°18'0 0.0
2019-May-16 09:30N 58°58' W 003°18'1 2.1
2019-May-16 09:00N 58°57' W 003°17'715.0
2019-May-16 08:30N 58°52' W 003°28'918.8
2019-May-16 08:00N 58°42' W 003°30'611.7
2019-May-16 07:31N 58°37' W 003°32'0 0.1
2019-May-16 07:00N 58°37' W 003°32'714.6
2019-May-16 06:30N 58°44' W 003°30'918.8
2019-May-16 06:00N 58°53' W 003°28'713.4
2019-May-16 05:30N 58°58' W 003°18'0 0.4
2019-May-16 04:58N 58°58' W 003°18'0 0.0
2019-May-16 04:28N 58°58' W 003°18'0 0.0
2019-May-16 03:58N 58°58' W 003°18'0 0.0
2019-May-16 03:28N 58°58' W 003°18'0 0.0
2019-May-16 02:58N 58°58' W 003°18'0 0.0
2019-May-16 02:28N 58°58' W 003°18'0 0.0
2019-May-16 01:58N 58°58' W 003°18'0 0.0
2019-May-16 01:28N 58°58' W 003°18'0 0.0
2019-May-16 00:58N 58°58' W 003°18'0 0.0
2019-May-16 00:28N 58°58' W 003°18'0 0.0
2019-May-15 23:58N 58°58' W 003°18'0 0.0
2019-May-15 23:28N 58°58' W 003°18'0 0.0
2019-May-15 22:58N 58°58' W 003°18'0 0.0
2019-May-15 22:28N 58°58' W 003°18'0 0.0
2019-May-15 21:55N 58°58' W 003°18'0 0.0
2019-May-15 21:28N 58°58' W 003°18'0 0.0
2019-May-15 20:58N 58°58' W 003°18'0 0.0
2019-May-15 20:25N 58°58' W 003°18'0 0.0
2019-May-15 19:58N 58°58' W 003°18'0 0.0
2019-May-15 19:30N 58°58' W 003°18'5 9.3
2019-May-15 19:01N 58°56' W 003°26'918.0
2019-May-15 18:30N 58°47' W 003°29'918.8
2019-May-15 18:00N 58°37' W 003°32'1 1.6
2019-May-15 17:30N 58°37' W 003°32'4 8.1
2019-May-15 17:00N 58°41' W 003°31'918.7
2019-May-15 16:30N 58°50' W 003°28'816.4
2019-May-15 16:00N 58°57' W 003°20'1 2.7
2019-May-15 15:29N 58°58' W 003°18'0 0.0
2019-May-15 14:56N 58°58' W 003°18'0 0.0
2019-May-15 14:26N 58°58' W 003°18'0 0.0
2019-May-15 13:56N 58°58' W 003°18'0 0.0
2019-May-15 13:26N 58°58' W 003°18'0 0.0
2019-May-15 12:56N 58°58' W 003°18'0 0.0
2019-May-15 12:26N 58°58' W 003°18'0 0.0
2019-May-15 11:41N 58°58' W 003°18'0 0.0
2019-May-15 11:20N 58°58' W 003°18'0 0.0
2019-May-15 11:00N 58°58' W 003°18'0 0.0
2019-May-15 10:29N 58°58' W 003°18'0 0.0
2019-May-15 09:59N 58°58' W 003°18'0 0.0
2019-May-15 09:29N 58°58' W 003°18'1 2.1
2019-May-15 09:00N 58°57' W 003°18'715.0
2019-May-15 08:30N 58°51' W 003°28'918.6
2019-May-15 08:00N 58°42' W 003°30'611.2
2019-May-15 07:30N 58°37' W 003°32'0 0.0
2019-May-15 07:00N 58°37' W 003°32'713.2
2019-May-15 06:30N 58°43' W 003°29'1019.0
2019-May-15 06:00N 58°53' W 003°27'714.0
2019-May-15 05:30N 58°57' W 003°18'0 0.7
2019-May-15 04:59N 58°58' W 003°18'0 0.0
2019-May-15 04:29N 58°58' W 003°18'0 0.0
2019-May-15 03:59N 58°58' W 003°18'0 0.0
2019-May-15 03:29N 58°58' W 003°18'0 0.0
2019-May-15 02:56N 58°58' W 003°18'0 0.0
2019-May-15 02:29N 58°58' W 003°18'0 0.0
2019-May-15 01:56N 58°58' W 003°18'0 0.0
2019-May-15 01:29N 58°58' W 003°18'0 0.0
2019-May-15 00:59N 58°58' W 003°18'0 0.0
2019-May-15 00:29N 58°58' W 003°18'0 0.0
2019-May-14 23:59N 58°58' W 003°18'0 0.0
2019-May-14 23:29N 58°58' W 003°18'0 0.0
2019-May-14 22:59N 58°58' W 003°18'0 0.0
2019-May-14 22:29N 58°58' W 003°18'0 0.0
2019-May-14 21:59N 58°58' W 003°18'0 0.0
2019-May-14 21:29N 58°58' W 003°18'0 0.0
2019-May-14 20:59N 58°58' W 003°18'0 0.0
2019-May-14 20:26N 58°58' W 003°18'0 0.0
2019-May-14 19:56N 58°58' W 003°18'0 0.0
2019-May-14 19:29N 58°58' W 003°18'3 7.1
2019-May-14 19:01N 58°56' W 003°24'917.4
2019-May-14 18:30N 58°48' W 003°29'918.3
2019-May-14 18:00N 58°39' W 003°31'2 4.6
2019-May-14 17:31N 58°37' W 003°32'1 2.8
2019-May-14 16:59N 58°38' W 003°31'918.6
2019-May-14 16:30N 58°47' W 003°29'919.0
2019-May-14 16:00N 58°56' W 003°24'4 7.8
2019-May-14 15:30N 58°58' W 003°18'0 0.0
2019-May-14 14:59N 58°58' W 003°18'0 0.0
2019-May-14 14:26N 58°58' W 003°18'0 0.0
2019-May-14 13:56N 58°58' W 003°18'0 0.0
2019-May-14 13:26N 58°58' W 003°18'0 0.0
2019-May-14 12:56N 58°58' W 003°18'0 0.0
2019-May-14 12:20N 58°58' W 003°18'0 0.0
2019-May-14 11:56N 58°58' W 003°18'0 0.0
2019-May-14 11:20N 58°58' W 003°18'0 0.0
2019-May-14 10:56N 58°58' W 003°18'0 0.0
2019-May-14 10:29N 58°58' W 003°18'0 0.0
2019-May-14 10:00N 58°58' W 003°18'0 0.0
2019-May-14 09:30N 58°58' W 003°18'1 2.3
2019-May-14 09:00N 58°57' W 003°19'815.7
2019-May-14 08:30N 58°51' W 003°28'918.5
2019-May-14 08:00N 58°41' W 003°30'5 9.8
2019-May-14 07:30N 58°37' W 003°32'0 0.0
2019-May-14 07:00N 58°37' W 003°32'714.8
2019-May-14 06:30N 58°44' W 003°29'918.9
2019-May-14 06:00N 58°53' W 003°27'713.0
2019-May-14 05:30N 58°58' W 003°18'0 0.3
2019-May-14 04:59N 58°58' W 003°18'0 0.0
2019-May-14 04:29N 58°58' W 003°18'0 0.0
2019-May-14 03:50N 58°58' W 003°18'0 0.0
2019-May-14 03:29N 58°58' W 003°18'0 0.0
2019-May-14 02:59N 58°58' W 003°18'0 0.0
2019-May-14 02:29N 58°58' W 003°18'0 0.0
2019-May-14 01:59N 58°58' W 003°18'0 0.0
2019-May-14 01:29N 58°58' W 003°18'0 0.0
2019-May-14 00:59N 58°58' W 003°18'0 0.0
2019-May-13 23:14N 58°58' W 003°18'0 0.0
2019-May-13 22:59N 58°58' W 003°18'0 0.0
2019-May-13 22:26N 58°58' W 003°18'0 0.0
2019-May-13 21:59N 58°58' W 003°18'0 0.0
2019-May-13 21:29N 58°58' W 003°18'0 0.0
2019-May-13 20:59N 58°58' W 003°18'0 0.0
2019-May-13 20:29N 58°58' W 003°18'0 0.0
2019-May-13 19:59N 58°58' W 003°18'0 0.0
2019-May-13 19:30N 58°58' W 003°18'510.3
2019-May-13 19:00N 58°55' W 003°26'918.1
2019-May-13 18:30N 58°46' W 003°29'917.8
2019-May-13 17:58N 58°37' W 003°32'0 0.3
2019-May-13 17:30N 58°37' W 003°32'3 5.3
2019-May-13 17:00N 58°39' W 003°31'918.3
2019-May-13 16:30N 58°48' W 003°29'917.6
2019-May-13 16:00N 58°56' W 003°23'3 6.5
2019-May-13 15:30N 58°58' W 003°18'0 0.0
2019-May-13 14:58N 58°58' W 003°18'0 0.0
2019-May-13 14:28N 58°58' W 003°18'0 0.0
2019-May-13 13:58N 58°58' W 003°18'0 0.0
2019-May-13 13:28N 58°58' W 003°18'0 0.0
2019-May-13 12:58N 58°58' W 003°18'0 0.0
2019-May-13 12:28N 58°58' W 003°18'0 0.0
2019-May-13 11:58N 58°58' W 003°18'0 0.0
2019-May-13 11:28N 58°58' W 003°18'0 0.0
2019-May-13 10:58N 58°58' W 003°18'0 0.0
2019-May-13 10:28N 58°58' W 003°18'0 0.0
2019-May-13 09:58N 58°58' W 003°18'0 0.0
2019-May-13 09:28N 58°58' W 003°18'1 2.4
2019-May-13 09:00N 58°57' W 003°19'816.1
2019-May-13 08:31N 58°51' W 003°29'918.4
2019-May-13 08:00N 58°42' W 003°31'5 9.8
2019-May-13 07:30N 58°37' W 003°32'0 0.0
2019-May-13 07:00N 58°37' W 003°32'713.6
2019-May-13 06:30N 58°43' W 003°30'918.7
2019-May-13 06:00N 58°53' W 003°28'714.4
2019-May-13 05:30N 58°58' W 003°18'0 0.4
2019-May-13 04:57N 58°58' W 003°18'0 0.0
2019-May-13 04:21N 58°58' W 003°18'0 0.0
2019-May-13 03:57N 58°58' W 003°18'0 0.0
2019-May-13 03:27N 58°58' W 003°18'0 0.0
2019-May-13 02:57N 58°58' W 003°18'0 0.0
2019-May-13 02:27N 58°58' W 003°18'0 0.0
2019-May-13 02:00N 58°58' W 003°18'0 0.0
2019-May-13 01:27N 58°58' W 003°18'0 0.0
2019-May-13 00:57N 58°58' W 003°18'0 0.0
2019-May-13 00:27N 58°58' W 003°18'0 0.0
2019-May-13 00:00N 58°58' W 003°18'0 0.0
2019-May-12 23:27N 58°58' W 003°18'0 0.0
2019-May-12 22:57N 58°58' W 003°18'0 0.0
2019-May-12 22:27N 58°58' W 003°18'0 0.0
2019-May-12 21:57N 58°58' W 003°18'0 0.0
2019-May-12 21:27N 58°58' W 003°18'0 0.0
2019-May-12 20:57N 58°58' W 003°18'0 0.0
2019-May-12 20:27N 58°58' W 003°18'0 0.0
2019-May-12 19:57N 58°58' W 003°18'0 0.0
2019-May-12 19:30N 58°58' W 003°18'3 6.2
2019-May-12 19:00N 58°56' W 003°23'917.7
2019-May-12 18:30N 58°48' W 003°28'918.3
2019-May-12 18:00N 58°39' W 003°31'2 4.8
2019-May-12 17:30N 58°37' W 003°32'2 3.2
2019-May-12 16:58N 58°38' W 003°31'918.6
2019-May-12 16:30N 58°47' W 003°29'919.1
2019-May-12 16:00N 58°56' W 003°25'4 8.0
2019-May-12 15:30N 58°58' W 003°18'0 0.0
2019-May-12 15:00N 58°58' W 003°18'0 0.0
2019-May-12 14:30N 58°58' W 003°18'0 0.0
2019-May-12 14:00N 58°58' W 003°18'0 0.0
2019-May-12 13:30N 58°58' W 003°18'0 0.0
2019-May-12 13:00N 58°58' W 003°18'0 0.0
2019-May-12 12:30N 58°58' W 003°18'4 7.3
2019-May-12 12:00N 58°56' W 003°24'918.1
2019-May-12 11:30N 58°48' W 003°29'918.3
2019-May-12 11:00N 58°39' W 003°31'2 4.0
2019-May-12 10:30N 58°37' W 003°32'0 0.0
2019-May-12 10:00N 58°37' W 003°32'0 0.0
2019-May-12 09:30N 58°37' W 003°32'510.5
2019-May-12 09:00N 58°42' W 003°31'918.3
2019-May-12 08:30N 58°51' W 003°28'816.2
2019-May-12 08:00N 58°57' W 003°18'1 2.0
2019-May-12 07:29N 58°58' W 003°18'0 0.0
2019-May-12 06:56N 58°58' W 003°18'0 0.0
2019-May-12 06:29N 58°58' W 003°18'0 0.0
2019-May-12 06:01N 58°58' W 003°18'0 0.0
2019-May-12 05:31N 58°58' W 003°18'0 0.0
2019-May-12 05:01N 58°58' W 003°18'0 0.0
2019-May-12 04:31N 58°58' W 003°18'0 0.0
2019-May-12 04:01N 58°58' W 003°18'0 0.0
2019-May-12 03:31N 58°58' W 003°18'0 0.0
2019-May-12 03:01N 58°58' W 003°18'0 0.0
2019-May-12 02:25N 58°58' W 003°18'0 0.0
2019-May-12 02:01N 58°58' W 003°18'0 0.0
2019-May-12 01:31N 58°58' W 003°18'0 0.0
2019-May-12 01:01N 58°58' W 003°18'0 0.0
2019-May-12 00:31N 58°58' W 003°18'0 0.0
2019-May-12 00:00N 58°58' W 003°18'0 0.0
2019-May-11 23:28N 58°58' W 003°18'0 0.0
2019-May-11 22:58N 58°58' W 003°18'0 0.0
2019-May-11 22:28N 58°58' W 003°18'0 0.0
2019-May-11 21:58N 58°58' W 003°18'0 0.0
2019-May-11 21:28N 58°58' W 003°18'0 0.0
2019-May-11 20:58N 58°58' W 003°18'0 0.0
2019-May-11 20:28N 58°58' W 003°18'0 0.0
2019-May-11 19:58N 58°58' W 003°18'0 0.0
2019-May-11 19:29N 58°58' W 003°18'3 6.5
2019-May-11 19:00N 58°56' W 003°23'917.9
2019-May-11 18:30N 58°48' W 003°28'918.0
2019-May-11 18:00N 58°39' W 003°31'2 4.7
2019-May-11 17:30N 58°37' W 003°32'2 3.3
2019-May-11 16:57N 58°38' W 003°31'819.0
2019-May-11 16:30N 58°47' W 003°29'918.8
2019-May-11 16:00N 58°56' W 003°25'4 8.3
2019-May-11 15:30N 58°58' W 003°18'0 0.0
2019-May-11 14:57N 58°58' W 003°18'0 0.0
2019-May-11 14:27N 58°58' W 003°18'0 0.0
2019-May-11 13:57N 58°58' W 003°18'0 0.0
2019-May-11 13:27N 58°58' W 003°18'0 0.0
2019-May-11 13:00N 58°58' W 003°18'0 0.0
2019-May-11 12:30N 58°58' W 003°18'4 8.7
2019-May-11 12:00N 58°56' W 003°25'917.3
2019-May-11 11:30N 58°47' W 003°29'918.1
2019-May-11 11:00N 58°38' W 003°31'2 2.9
2019-May-11 10:24N 58°37' W 003°32'0 0.0
2019-May-11 10:00N 58°37' W 003°32'0 0.0
2019-May-11 09:30N 58°37' W 003°32'612.5
2019-May-11 09:01N 58°43' W 003°30'918.4
2019-May-11 08:31N 58°52' W 003°28'815.0
2019-May-11 08:00N 58°57' W 003°18'1 1.1
2019-May-11 07:30N 58°58' W 003°18'0 0.0
2019-May-11 07:00N 58°58' W 003°18'0 0.0
2019-May-11 06:30N 58°58' W 003°18'0 0.0
2019-May-11 06:00N 58°58' W 003°18'0 0.0
2019-May-11 05:30N 58°58' W 003°18'0 0.0
2019-May-11 05:00N 58°58' W 003°18'0 0.0
2019-May-11 04:30N 58°58' W 003°18'0 0.0
2019-May-11 04:00N 58°58' W 003°18'0 0.0
2019-May-11 03:30N 58°58' W 003°18'0 0.0
2019-May-11 03:00N 58°58' W 003°18'0 0.0
2019-May-11 02:30N 58°58' W 003°18'0 0.0
2019-May-11 01:57N 58°58' W 003°18'0 0.0
2019-May-11 01:30N 58°58' W 003°18'0 0.0
2019-May-11 01:00N 58°58' W 003°18'0 0.0
2019-May-11 00:30N 58°58' W 003°18'0 0.0
2019-May-10 23:48N 58°58' W 003°18'0 0.0
2019-May-10 23:30N 58°58' W 003°18'0 0.0
2019-May-10 23:00N 58°58' W 003°18'0 0.0
2019-May-10 22:30N 58°58' W 003°18'0 0.0
2019-May-10 22:00N 58°58' W 003°18'0 0.0
2019-May-10 21:30N 58°58' W 003°18'0 0.0
2019-May-10 21:00N 58°58' W 003°18'0 0.0
2019-May-10 20:30N 58°58' W 003°18'0 0.0
2019-May-10 20:00N 58°58' W 003°18'0 0.0
2019-May-10 19:30N 58°58' W 003°18'5 9.3
2019-May-10 19:00N 58°55' W 003°25'918.5
2019-May-10 18:30N 58°46' W 003°29'918.1
2019-May-10 18:00N 58°37' W 003°32'1 1.7
2019-May-10 17:30N 58°37' W 003°32'1 1.2
2019-May-10 17:00N 58°37' W 003°32'  

Dump ship's entire track history